createdAt,value
2018-07-06T00:01:05.885Z,4.10
2018-07-06T00:03:46.121Z,4.13
2018-07-06T00:06:26.029Z,4.23
2018-07-06T00:09:06.513Z,4.03
2018-07-06T00:11:46.289Z,3.50
2018-07-06T00:14:26.361Z,3.80
2018-07-06T00:17:06.154Z,3.87
2018-07-06T00:19:46.073Z,3.77
2018-07-06T00:22:26.198Z,3.60
2018-07-06T00:25:06.118Z,3.43
2018-07-06T00:27:46.290Z,3.40
2018-07-06T00:30:26.110Z,3.37
2018-07-06T00:33:06.114Z,3.47
2018-07-06T00:35:46.092Z,3.57
2018-07-06T00:38:26.040Z,3.40
2018-07-06T00:41:05.920Z,3.27
2018-07-06T00:43:45.920Z,3.60
2018-07-06T00:46:25.690Z,3.50
2018-07-06T00:49:05.652Z,3.03
2018-07-06T00:51:45.379Z,3.53
2018-07-06T00:54:25.256Z,3.60
2018-07-06T00:57:05.409Z,3.83
2018-07-06T00:59:45.225Z,3.77
2018-07-06T01:02:25.089Z,3.93
2018-07-06T01:05:04.862Z,3.50
2018-07-06T01:07:44.705Z,3.90
2018-07-06T01:10:24.609Z,3.90
2018-07-06T01:13:04.433Z,4.00
2018-07-06T01:15:44.217Z,3.97
2018-07-06T01:18:18.451Z,4.20
2018-07-06T01:20:58.617Z,3.77
2018-07-06T01:23:39.541Z,3.50
2018-07-06T01:26:19.573Z,3.70
2018-07-06T01:29:00.245Z,4.10
2018-07-06T01:31:40.499Z,3.83
2018-07-06T01:34:20.325Z,4.73
2018-07-06T01:37:00.401Z,3.90
2018-07-06T01:39:40.030Z,3.43
2018-07-06T01:42:19.865Z,3.57
2018-07-06T01:44:59.761Z,4.10
2018-07-06T01:47:39.600Z,4.43
2018-07-06T01:50:19.532Z,3.73
2018-07-06T01:52:59.524Z,4.23
2018-07-06T01:55:39.394Z,4.77
2018-07-06T01:58:19.344Z,4.47
2018-07-06T02:00:59.344Z,5.30
2018-07-06T02:03:39.133Z,4.40
2018-07-06T02:06:19.058Z,4.57
2018-07-06T02:08:58.796Z,3.80
2018-07-06T02:11:38.712Z,4.50
2018-07-06T02:14:18.517Z,4.60
2018-07-06T02:16:58.326Z,4.20
2018-07-06T02:19:32.139Z,3.90
2018-07-06T02:22:11.757Z,4.30
2018-07-06T02:24:51.579Z,4.67
2018-07-06T02:27:31.527Z,4.50
2018-07-06T02:30:11.173Z,3.87
2018-07-06T02:32:51.137Z,4.60
2018-07-06T02:35:30.946Z,4.60
2018-07-06T02:38:10.768Z,4.07
2018-07-06T02:40:50.646Z,4.10
2018-07-06T02:43:30.516Z,4.00
2018-07-06T02:46:10.322Z,4.27
2018-07-06T02:48:50.372Z,4.00
2018-07-06T02:51:24.077Z,3.90
2018-07-06T02:54:03.976Z,3.67
2018-07-06T02:56:44.192Z,4.37
2018-07-06T02:59:24.002Z,3.93
2018-07-06T03:02:03.879Z,3.87
2018-07-06T03:04:44.256Z,3.83
2018-07-06T03:07:24.088Z,3.90
2018-07-06T03:10:03.944Z,3.87
2018-07-06T03:12:43.920Z,4.10
2018-07-06T03:15:17.857Z,4.27
2018-07-06T03:17:57.696Z,4.40
2018-07-06T03:20:37.482Z,4.40
2018-07-06T03:23:17.262Z,4.43
2018-07-06T03:25:57.251Z,4.13
2018-07-06T03:28:36.939Z,4.37
2018-07-06T03:31:17.109Z,4.23
2018-07-06T03:33:57.008Z,5.43
2018-07-06T03:36:37.673Z,4.87
2018-07-06T03:39:11.707Z,4.50
2018-07-06T03:41:51.760Z,4.43
2018-07-06T03:44:31.714Z,6.10
2018-07-06T03:47:11.706Z,4.77
2018-07-06T03:49:51.699Z,5.57
2018-07-06T03:52:31.524Z,4.60
2018-07-06T03:55:11.567Z,4.40
2018-07-06T03:57:51.349Z,4.73
2018-07-06T04:00:31.304Z,4.47
2018-07-06T04:03:12.100Z,4.03
2018-07-06T04:05:51.775Z,4.10
2018-07-06T04:08:31.588Z,4.27
2018-07-06T04:11:11.505Z,4.13
2018-07-06T04:13:51.243Z,4.93
2018-07-06T04:16:31.199Z,4.70
2018-07-06T04:19:12.040Z,4.47
2018-07-06T04:21:53.873Z,4.43
2018-07-06T04:24:33.788Z,3.97
2018-07-06T04:27:14.017Z,3.63
2018-07-06T04:29:53.806Z,3.60
2018-07-06T04:32:33.614Z,3.97
2018-07-06T04:35:13.590Z,4.50
2018-07-06T04:37:54.194Z,4.03
2018-07-06T04:40:34.469Z,4.13
2018-07-06T04:43:14.153Z,3.93
2018-07-06T04:45:53.994Z,4.00
2018-07-06T04:48:33.730Z,3.80
2018-07-06T04:51:13.593Z,4.13
2018-07-06T04:53:47.371Z,3.60
2018-07-06T04:56:27.211Z,3.27
2018-07-06T04:59:06.980Z,3.63
2018-07-06T05:01:46.880Z,3.27
2018-07-06T05:04:26.623Z,3.67
2018-07-06T05:07:06.626Z,3.40
2018-07-06T05:09:46.501Z,3.40
2018-07-06T05:12:26.233Z,3.33
2018-07-06T05:15:06.196Z,3.60
2018-07-06T05:17:46.072Z,3.40
2018-07-06T05:20:20.186Z,3.20
2018-07-06T05:23:00.190Z,3.80
2018-07-06T05:25:39.894Z,3.87
2018-07-06T05:28:19.818Z,4.03
2018-07-06T05:30:59.770Z,3.37
2018-07-06T05:33:39.521Z,3.10
2018-07-06T05:36:13.440Z,3.60
2018-07-06T05:38:53.413Z,3.70
2018-07-06T05:41:33.189Z,3.67
2018-07-06T05:44:13.073Z,3.67
2018-07-06T05:46:53.171Z,4.30
2018-07-06T05:49:33.008Z,3.73
2018-07-06T05:52:06.857Z,3.70
2018-07-06T05:54:47.425Z,3.73
2018-07-06T05:57:27.183Z,3.67
2018-07-06T06:00:06.980Z,3.37
2018-07-06T06:02:46.942Z,2.67
2018-07-06T06:05:26.746Z,2.97
2018-07-06T06:07:54.236Z,2.70
2018-07-06T06:10:23.207Z,2.60
2018-07-06T06:12:52.066Z,2.30
2018-07-06T06:15:21.064Z,2.80
2018-07-06T06:17:49.905Z,2.60
2018-07-06T06:20:19.187Z,2.60
2018-07-06T06:22:48.042Z,2.70
2018-07-06T06:25:16.926Z,2.80
2018-07-06T06:27:46.383Z,3.17
2018-07-06T06:30:15.343Z,2.63
2018-07-06T06:32:44.544Z,2.77
2018-07-06T06:35:13.756Z,3.17
2018-07-06T06:37:42.789Z,3.00
2018-07-06T06:40:11.680Z,2.90
2018-07-06T06:42:40.647Z,2.73
2018-07-06T06:45:09.767Z,3.10
2018-07-06T06:47:38.828Z,3.27
2018-07-06T06:50:07.792Z,3.40
2018-07-06T06:52:36.917Z,3.30
2018-07-06T06:55:05.989Z,3.30
2018-07-06T06:57:35.556Z,3.10
2018-07-06T07:00:04.609Z,3.00
2018-07-06T07:02:34.666Z,2.93
2018-07-06T07:05:05.616Z,2.90
2018-07-06T07:07:34.904Z,3.77
2018-07-06T07:10:03.657Z,3.43
2018-07-06T07:12:32.734Z,3.07
2018-07-06T07:15:05.536Z,2.63
2018-07-06T07:17:34.554Z,2.90
2018-07-06T07:20:03.512Z,2.93
2018-07-06T07:22:32.709Z,3.30
2018-07-06T07:25:01.777Z,3.50
2018-07-06T07:27:31.025Z,3.23
2018-07-06T07:30:00.214Z,3.30
2018-07-06T07:32:29.713Z,3.40
2018-07-06T07:34:58.739Z,3.27
2018-07-06T07:37:27.943Z,3.07
2018-07-06T07:39:56.793Z,3.17
2018-07-06T07:42:25.841Z,3.60
2018-07-06T07:44:55.055Z,3.40
2018-07-06T07:47:25.003Z,3.20
2018-07-06T07:49:54.275Z,3.10
2018-07-06T07:52:34.069Z,3.10
2018-07-06T07:55:03.137Z,3.10
2018-07-06T07:57:32.045Z,3.20
2018-07-06T08:00:01.448Z,3.40
2018-07-06T08:02:30.431Z,3.40
2018-07-06T08:04:59.361Z,3.37
2018-07-06T08:07:28.413Z,3.50
2018-07-06T08:09:58.122Z,3.70
2018-07-06T08:12:27.061Z,3.93
2018-07-06T08:14:56.335Z,3.53
2018-07-06T08:17:25.467Z,3.30
2018-07-06T08:19:54.405Z,3.40
2018-07-06T08:22:23.295Z,4.00
2018-07-06T08:24:52.307Z,3.67
2018-07-06T08:27:21.188Z,3.70
2018-07-06T08:29:50.181Z,3.93
2018-07-06T08:32:19.139Z,4.10
2018-07-06T08:34:59.074Z,3.90
2018-07-06T08:37:43.911Z,3.73
2018-07-06T08:40:13.065Z,4.13
2018-07-06T08:42:43.191Z,3.80
2018-07-06T08:45:12.365Z,4.53
2018-07-06T08:47:41.658Z,3.97
2018-07-06T08:50:10.970Z,4.20
2018-07-06T08:52:40.782Z,3.90
2018-07-06T08:55:09.760Z,4.00
2018-07-06T08:57:39.587Z,4.23
2018-07-06T09:00:09.762Z,3.93
2018-07-06T09:02:38.999Z,4.10
2018-07-06T09:05:08.602Z,3.73
2018-07-06T09:07:37.635Z,4.17
2018-07-06T09:10:06.766Z,3.73
2018-07-06T09:12:36.052Z,3.70
2018-07-06T09:15:05.672Z,4.27
2018-07-06T09:17:37.799Z,3.90
2018-07-06T09:20:07.572Z,3.90
2018-07-06T09:22:36.454Z,3.63
2018-07-06T09:25:06.539Z,3.87
2018-07-06T09:27:35.412Z,3.67
2018-07-06T09:30:04.753Z,3.80
2018-07-06T09:32:34.022Z,3.90
2018-07-06T09:35:03.145Z,3.63
2018-07-06T09:37:32.206Z,4.20
2018-07-06T09:40:02.500Z,3.60
2018-07-06T09:42:32.526Z,3.77
2018-07-06T09:45:01.403Z,4.57
2018-07-06T09:47:31.609Z,4.17
2018-07-06T09:50:01.547Z,3.60
2018-07-06T09:52:31.180Z,3.90
2018-07-06T09:55:00.606Z,4.23
2018-07-06T09:57:30.185Z,5.10
2018-07-06T10:00:00.722Z,5.00
2018-07-06T10:02:29.630Z,4.13
2018-07-06T10:04:58.533Z,4.20
2018-07-06T10:07:27.611Z,4.10
2018-07-06T10:10:00.445Z,4.20
2018-07-06T10:12:29.947Z,4.97
2018-07-06T10:14:59.202Z,4.57
2018-07-06T10:17:29.111Z,4.30
2018-07-06T10:19:59.166Z,4.37
2018-07-06T10:22:28.356Z,4.57
2018-07-06T10:24:57.290Z,4.93
2018-07-06T10:27:34.757Z,5.30
2018-07-06T10:30:35.079Z,4.67
2018-07-06T10:33:04.083Z,5.13
2018-07-06T10:35:33.079Z,4.47
2018-07-06T10:38:01.969Z,5.73
2018-07-06T10:40:30.958Z,5.40
2018-07-06T10:43:00.353Z,5.30
2018-07-06T10:45:29.334Z,5.30
2018-07-06T10:47:58.267Z,5.13
2018-07-06T10:50:27.603Z,4.57
2018-07-06T10:52:56.533Z,5.20
2018-07-06T10:55:25.397Z,5.17
2018-07-06T10:57:54.356Z,4.43
2018-07-06T11:00:23.258Z,4.57
2018-07-06T11:02:52.202Z,4.73
2018-07-06T11:05:21.105Z,5.20
2018-07-06T11:07:50.024Z,5.30
2018-07-06T11:10:18.949Z,5.20
2018-07-06T11:12:48.038Z,4.67
2018-07-06T11:15:17.540Z,5.13
2018-07-06T11:17:46.538Z,5.20
2018-07-06T11:20:15.457Z,5.00
2018-07-06T11:22:44.372Z,5.30
2018-07-06T11:25:13.763Z,5.23
2018-07-06T11:27:42.933Z,6.03
2018-07-06T11:30:15.717Z,5.23
2018-07-06T11:32:44.626Z,5.70
2018-07-06T11:35:13.534Z,5.87
2018-07-06T11:37:42.468Z,4.50
2018-07-06T11:40:11.397Z,5.70
2018-07-06T11:42:40.421Z,5.30
2018-07-06T11:45:09.689Z,5.73
2018-07-06T11:47:39.194Z,5.70
2018-07-06T11:50:08.015Z,5.23
2018-07-06T11:52:36.971Z,5.80
2018-07-06T11:55:05.880Z,4.97
2018-07-06T11:57:34.780Z,5.10
2018-07-06T12:00:03.783Z,5.60
2018-07-06T12:02:32.642Z,4.60
2018-07-06T12:05:01.493Z,5.03
2018-07-06T12:07:31.048Z,5.00
2018-07-06T12:09:59.938Z,4.77
2018-07-06T12:12:29.926Z,4.83
2018-07-06T12:14:58.848Z,4.83
2018-07-06T12:17:28.123Z,4.73
2018-07-06T12:19:57.004Z,4.43
2018-07-06T12:22:25.432Z,4.23
2018-07-06T12:24:54.528Z,4.83
2018-07-06T12:27:23.388Z,5.10
2018-07-06T12:29:51.873Z,4.67
2018-07-06T12:32:20.708Z,5.00
2018-07-06T12:34:49.657Z,5.07
2018-07-06T12:37:18.686Z,5.27
2018-07-06T12:39:47.600Z,4.93
2018-07-06T12:42:17.060Z,4.80
2018-07-06T12:44:46.146Z,5.83
2018-07-06T12:47:15.662Z,5.60
2018-07-06T12:49:44.518Z,5.93
2018-07-06T12:52:13.437Z,5.83
2018-07-06T12:54:42.387Z,5.70
2018-07-06T12:57:11.309Z,4.87
2018-07-06T12:59:40.241Z,5.43
2018-07-06T13:02:09.160Z,5.23
2018-07-06T13:04:38.638Z,5.20
2018-07-06T13:07:07.570Z,4.93
2018-07-06T13:09:36.465Z,5.43
2018-07-06T13:12:05.390Z,5.83
2018-07-06T13:14:34.300Z,6.10
2018-07-06T13:17:03.198Z,6.13
2018-07-06T13:19:32.033Z,5.77
2018-07-06T13:22:01.158Z,5.63
2018-07-06T13:24:30.763Z,6.00
2018-07-06T13:27:00.051Z,5.57
2018-07-06T13:29:28.961Z,4.87
2018-07-06T13:31:57.873Z,5.20
2018-07-06T13:34:26.767Z,5.20
2018-07-06T13:36:55.605Z,4.93
2018-07-06T13:39:24.428Z,5.07
2018-07-06T13:41:53.435Z,5.85
2018-07-06T13:44:22.383Z,5.25
2018-07-06T13:46:51.763Z,5.15
2018-07-06T13:49:20.673Z,4.85
2018-07-06T13:51:49.541Z,4.83
2018-07-06T13:54:19.153Z,5.22
2018-07-06T13:56:48.863Z,5.75
2018-07-06T13:59:17.915Z,5.00
2018-07-06T14:01:46.647Z,5.70
2018-07-06T14:04:15.892Z,5.28
2018-07-06T14:06:45.022Z,5.87
2018-07-06T14:09:14.122Z,5.95
2018-07-06T14:11:43.050Z,6.50
2018-07-06T14:14:11.912Z,6.25
2018-07-06T14:16:41.046Z,5.60
2018-07-06T14:19:09.924Z,6.03
2018-07-06T14:21:38.836Z,5.10
2018-07-06T14:24:07.806Z,5.60
2018-07-06T14:26:36.668Z,5.25
2018-07-06T14:29:06.036Z,5.42
2018-07-06T14:31:34.969Z,5.55
2018-07-06T14:34:03.838Z,6.00
2018-07-06T14:36:32.661Z,4.87
2018-07-06T14:39:03.133Z,5.50
2018-07-06T14:41:32.001Z,5.30
2018-07-06T14:44:01.254Z,5.08
2018-07-06T14:46:30.074Z,4.83
2018-07-06T14:48:58.964Z,5.22
2018-07-06T14:51:28.285Z,5.53
2018-07-06T14:53:57.548Z,5.50
2018-07-06T14:56:26.428Z,5.78
2018-07-06T14:58:55.360Z,5.70
2018-07-06T15:01:24.463Z,5.47
2018-07-06T15:03:53.484Z,5.67
2018-07-06T15:06:22.864Z,5.35
2018-07-06T15:08:51.927Z,6.05
2018-07-06T15:11:20.810Z,5.15
2018-07-06T15:13:49.770Z,5.45
2018-07-06T15:16:18.589Z,5.22
2018-07-06T15:18:49.222Z,5.83
2018-07-06T15:21:18.115Z,5.15
2018-07-06T15:23:47.002Z,5.80
2018-07-06T15:26:15.995Z,6.45
2018-07-06T15:28:44.912Z,5.58
2018-07-06T15:31:14.168Z,5.53
2018-07-06T15:33:43.478Z,5.87
2018-07-06T15:36:12.353Z,5.17
2018-07-06T15:38:44.420Z,6.10
2018-07-06T15:41:13.430Z,5.37
2018-07-06T15:43:42.653Z,5.62
2018-07-06T15:46:11.762Z,5.92
2018-07-06T15:48:40.709Z,6.25
2018-07-06T15:51:09.531Z,5.67
2018-07-06T15:53:38.561Z,5.35
2018-07-06T15:56:07.706Z,5.75
2018-07-06T15:58:36.593Z,6.45
2018-07-06T16:01:05.690Z,5.53
2018-07-06T16:03:34.762Z,5.37
2018-07-06T16:06:03.828Z,5.20
2018-07-06T16:08:32.755Z,5.20
2018-07-06T16:11:01.805Z,4.65
2018-07-06T16:13:30.691Z,5.97
2018-07-06T16:15:59.709Z,5.35
2018-07-06T16:18:28.608Z,4.58
2018-07-06T16:20:57.506Z,4.80
2018-07-06T16:23:26.642Z,5.03
2018-07-06T16:25:55.572Z,5.00
2018-07-06T16:28:24.720Z,5.17
2018-07-06T16:30:53.568Z,4.28
2018-07-06T16:33:22.538Z,4.55
2018-07-06T16:35:51.461Z,3.92
2018-07-06T16:38:20.578Z,4.12
2018-07-06T16:40:49.601Z,4.45
2018-07-06T16:43:18.572Z,4.17
2018-07-06T16:45:48.196Z,4.47
2018-07-06T16:48:17.013Z,4.15
2018-07-06T16:50:45.938Z,3.72
2018-07-06T16:53:14.849Z,3.87
2018-07-06T16:55:43.712Z,3.95
2018-07-06T16:58:12.686Z,4.60
2018-07-06T17:00:41.590Z,3.50
2018-07-06T17:03:10.531Z,3.92
2018-07-06T17:05:40.514Z,4.20
2018-07-06T17:08:09.390Z,3.25
2018-07-06T17:10:38.289Z,3.52
2018-07-06T17:13:07.209Z,3.30
2018-07-06T17:15:36.031Z,3.10
2018-07-06T17:18:05.137Z,3.22
2018-07-06T17:20:34.073Z,3.62
2018-07-06T17:23:03.075Z,3.42
2018-07-06T17:25:31.936Z,3.22
2018-07-06T17:28:01.017Z,3.25
2018-07-06T17:30:29.900Z,4.08
2018-07-06T17:32:58.765Z,3.90
2018-07-06T17:35:28.634Z,3.20
2018-07-06T17:37:57.143Z,4.67
2018-07-06T17:40:25.956Z,4.08
2018-07-06T17:42:54.804Z,3.83
2018-07-06T17:45:23.785Z,3.80
2018-07-06T17:47:52.630Z,3.45
2018-07-06T17:50:21.597Z,3.52
2018-07-06T17:52:50.893Z,3.60
2018-07-06T17:55:19.749Z,3.12
2018-07-06T17:57:48.636Z,4.33
2018-07-06T18:00:17.693Z,3.50
2018-07-06T18:02:46.546Z,3.52
2018-07-06T18:05:15.488Z,3.50
2018-07-06T18:07:44.374Z,3.30
2018-07-06T18:10:13.212Z,3.42
2018-07-06T18:12:42.068Z,3.62
2018-07-06T18:15:11.031Z,4.17
2018-07-06T18:17:40.128Z,3.55
2018-07-06T18:20:09.060Z,3.45
2018-07-06T18:22:38.037Z,3.50
2018-07-06T18:25:06.957Z,3.02
2018-07-06T18:27:36.166Z,3.67
2018-07-06T18:30:05.044Z,3.20
2018-07-06T18:32:33.897Z,3.27
2018-07-06T18:35:03.205Z,3.40
2018-07-06T18:37:32.256Z,3.47
2018-07-06T18:40:01.044Z,3.83
2018-07-06T18:42:29.945Z,4.30
2018-07-06T18:44:59.665Z,3.40
2018-07-06T18:47:28.581Z,3.72
2018-07-06T18:49:57.396Z,3.45
2018-07-06T18:52:26.545Z,3.30
2018-07-06T18:54:57.550Z,3.30
2018-07-06T18:57:26.501Z,3.55
2018-07-06T18:59:55.451Z,3.55
2018-07-06T19:02:24.493Z,3.15
2018-07-06T19:04:53.338Z,3.00
2018-07-06T19:07:22.194Z,3.05
2018-07-06T19:09:51.076Z,3.20
2018-07-06T19:12:19.980Z,2.92
2018-07-06T19:14:48.394Z,3.67
2018-07-06T19:17:17.317Z,3.20
2018-07-06T19:19:46.186Z,3.33
2018-07-06T19:22:15.382Z,3.50
2018-07-06T19:24:44.272Z,3.27
2018-07-06T19:27:13.326Z,3.57
2018-07-06T19:29:42.282Z,3.10
2018-07-06T19:32:11.384Z,3.43
2018-07-06T19:34:40.233Z,3.60
2018-07-06T19:37:09.241Z,3.30
2018-07-06T19:39:38.098Z,3.23
2018-07-06T19:42:07.088Z,3.40
2018-07-06T19:44:35.955Z,3.17
2018-07-06T19:47:04.927Z,3.07
2018-07-06T19:49:33.801Z,3.43
2018-07-06T19:52:02.822Z,2.93
2018-07-06T19:54:31.698Z,3.00
2018-07-06T19:57:00.951Z,3.40
2018-07-06T19:59:29.992Z,3.30
2018-07-06T20:01:58.960Z,3.47
2018-07-06T20:04:27.901Z,3.43
2018-07-06T20:06:56.769Z,3.40
2018-07-06T20:09:25.712Z,3.23
2018-07-06T20:11:54.788Z,3.67
2018-07-06T20:14:23.710Z,3.37
2018-07-06T20:16:52.597Z,3.50
2018-07-06T20:19:21.563Z,3.30
2018-07-06T20:21:50.392Z,3.80
2018-07-06T20:24:19.322Z,3.80
2018-07-06T20:26:48.157Z,3.73
2018-07-06T20:29:17.066Z,3.50
2018-07-06T20:31:46.061Z,3.43
2018-07-06T20:34:15.056Z,3.60
2018-07-06T20:36:44.133Z,3.63
2018-07-06T20:39:13.051Z,3.70
2018-07-06T20:41:42.086Z,3.77
2018-07-06T20:44:11.004Z,3.83
2018-07-06T20:46:39.970Z,3.70
2018-07-06T20:49:08.997Z,4.20
2018-07-06T20:51:37.869Z,3.53
2018-07-06T20:54:06.802Z,4.07
2018-07-06T20:56:35.721Z,3.97
2018-07-06T20:59:04.841Z,4.03
2018-07-06T21:01:40.046Z,4.10
2018-07-06T21:04:08.940Z,4.10
2018-07-06T21:06:37.855Z,4.30
2018-07-06T21:09:07.360Z,4.00
2018-07-06T21:11:36.379Z,4.77
2018-07-06T21:14:05.368Z,4.37
2018-07-06T21:16:34.257Z,4.93
2018-07-06T21:19:06.430Z,4.30
2018-07-06T21:21:35.627Z,3.97
2018-07-06T21:24:04.695Z,4.27
2018-07-06T21:26:33.729Z,4.33
2018-07-06T21:29:02.965Z,4.40
2018-07-06T21:31:32.014Z,4.20
2018-07-06T21:34:01.052Z,4.43
2018-07-06T21:36:34.670Z,4.23
2018-07-06T21:39:04.422Z,4.37
2018-07-06T21:41:33.577Z,4.33
2018-07-06T21:44:02.968Z,4.47
2018-07-06T21:46:32.736Z,4.43
2018-07-06T21:49:04.513Z,4.63
2018-07-06T21:51:33.591Z,4.30
2018-07-06T21:54:02.730Z,4.60
2018-07-06T21:56:31.782Z,5.00
2018-07-06T21:59:00.834Z,4.80
2018-07-06T22:01:29.920Z,4.70
2018-07-06T22:03:58.867Z,4.50
2018-07-06T22:06:28.137Z,4.50
2018-07-06T22:08:57.178Z,4.73
2018-07-06T22:11:26.247Z,4.43
2018-07-06T22:13:55.465Z,4.60
2018-07-06T22:16:24.691Z,4.87
2018-07-06T22:18:53.705Z,5.03
2018-07-06T22:21:22.681Z,4.53
2018-07-06T22:23:51.656Z,4.90
2018-07-06T22:26:20.590Z,4.67
2018-07-06T22:28:49.602Z,4.73
2018-07-06T22:31:18.705Z,4.97
2018-07-06T22:33:59.982Z,4.73
2018-07-06T22:36:31.008Z,5.17
2018-07-06T22:38:59.862Z,4.20
2018-07-06T22:41:28.780Z,4.63
2018-07-06T22:43:57.656Z,4.60
2018-07-06T22:46:26.640Z,4.70
2018-07-06T22:48:55.635Z,4.37
2018-07-06T22:51:24.556Z,4.47
2018-07-06T22:53:53.366Z,5.13
2018-07-06T22:56:22.668Z,4.70
2018-07-06T22:58:52.668Z,4.47
2018-07-06T23:01:21.631Z,5.10
2018-07-06T23:03:50.129Z,4.67
2018-07-06T23:06:19.079Z,4.63
2018-07-06T23:08:48.071Z,4.80
2018-07-06T23:11:17.129Z,4.53
2018-07-06T23:13:46.380Z,4.83
2018-07-06T23:16:15.293Z,4.27
2018-07-06T23:18:44.157Z,4.90
2018-07-06T23:21:14.305Z,5.07
2018-07-06T23:23:43.176Z,4.90
2018-07-06T23:26:12.117Z,4.50
2018-07-06T23:28:41.235Z,4.97
2018-07-06T23:31:10.122Z,5.10
2018-07-06T23:33:38.994Z,4.87
2018-07-06T23:36:07.917Z,5.70
2018-07-06T23:38:36.957Z,5.50
2018-07-06T23:41:05.936Z,5.40
2018-07-06T23:43:34.790Z,5.83
2018-07-06T23:46:03.714Z,5.47
2018-07-06T23:48:32.700Z,4.90
2018-07-06T23:51:01.764Z,5.27
2018-07-06T23:53:30.853Z,5.40
2018-07-06T23:55:59.367Z,5.63
2018-07-06T23:58:28.566Z,5.53
